createdAt,value
2023-03-03T00:01:19.651Z,60.10
2023-03-03T00:03:46.741Z,61.67
2023-03-03T00:06:14.491Z,55.20
2023-03-03T00:08:41.121Z,63.00
2023-03-03T00:11:08.013Z,57.10
2023-03-03T00:13:51.083Z,56.63
2023-03-03T00:16:25.737Z,59.47
2023-03-03T00:18:53.068Z,61.40
2023-03-03T00:21:41.052Z,52.20
2023-03-03T00:24:13.613Z,54.87
2023-03-03T00:26:56.096Z,50.20
2023-03-03T00:29:35.630Z,58.30
2023-03-03T00:32:42.762Z,56.10
2023-03-03T00:35:23.530Z,55.00
2023-03-03T00:38:10.626Z,55.87
2023-03-03T00:40:38.994Z,52.00
2023-03-03T00:43:18.404Z,44.30
2023-03-03T00:45:52.859Z,48.27
2023-03-03T00:48:26.423Z,47.73
2023-03-03T00:50:57.919Z,52.10
2023-03-03T00:53:26.452Z,45.53
2023-03-03T00:55:53.632Z,46.67
2023-03-03T00:58:21.916Z,44.47
2023-03-03T01:00:50.884Z,50.60
2023-03-03T01:03:21.733Z,41.73
2023-03-03T01:05:49.673Z,39.10
2023-03-03T01:08:17.098Z,44.03
2023-03-03T01:10:48.620Z,41.97
2023-03-03T01:13:15.226Z,37.63
2023-03-03T01:15:46.202Z,41.97
2023-03-03T01:18:13.317Z,42.27
2023-03-03T01:20:41.683Z,42.13
2023-03-03T01:23:08.652Z,41.17
2023-03-03T01:25:35.510Z,41.87
2023-03-03T01:28:02.169Z,33.20
2023-03-03T01:30:28.871Z,31.70
2023-03-03T01:32:55.776Z,39.20
2023-03-03T01:35:22.556Z,37.20
2023-03-03T01:37:49.243Z,33.23
2023-03-03T01:40:27.223Z,32.80
2023-03-03T01:42:54.415Z,33.80
2023-03-03T01:45:32.340Z,34.30
2023-03-03T01:48:05.357Z,34.17
2023-03-03T01:50:46.034Z,45.70
2023-03-03T01:53:17.656Z,33.30
2023-03-03T01:55:46.028Z,32.63
2023-03-03T01:58:18.428Z,36.90
2023-03-03T02:00:50.474Z,37.77
2023-03-03T02:03:19.671Z,37.43
2023-03-03T02:05:46.707Z,35.80
2023-03-03T02:08:16.369Z,35.20
2023-03-03T02:10:45.023Z,34.97
2023-03-03T02:13:11.999Z,33.53
2023-03-03T02:15:39.316Z,38.07
2023-03-03T02:18:09.172Z,35.30
2023-03-03T02:20:57.826Z,32.77
2023-03-03T02:24:00.424Z,37.73
2023-03-03T02:26:29.113Z,36.30
2023-03-03T02:28:55.916Z,39.60
2023-03-03T02:31:25.047Z,37.37
2023-03-03T02:33:53.289Z,39.60
2023-03-03T02:36:26.771Z,35.40
2023-03-03T02:39:11.749Z,42.80
2023-03-03T02:41:47.001Z,41.10
2023-03-03T02:44:16.570Z,36.67
2023-03-03T02:46:48.691Z,41.20
2023-03-03T02:49:21.861Z,37.83
2023-03-03T02:51:48.707Z,42.40
2023-03-03T02:54:17.316Z,42.00
2023-03-03T02:56:44.429Z,42.13
2023-03-03T02:59:11.608Z,47.00
2023-03-03T03:01:38.667Z,47.03
2023-03-03T03:04:14.290Z,39.97
2023-03-03T03:06:41.282Z,42.50
2023-03-03T03:09:09.900Z,42.67
2023-03-03T03:11:37.139Z,42.67
2023-03-03T03:14:05.168Z,41.43
2023-03-03T03:16:32.078Z,41.87
2023-03-03T03:19:00.122Z,45.03
2023-03-03T03:21:26.969Z,46.80
2023-03-03T03:23:53.724Z,41.97
2023-03-03T03:26:21.131Z,43.13
2023-03-03T03:28:51.309Z,42.93
2023-03-03T03:31:20.178Z,44.27
2023-03-03T03:33:47.030Z,43.17
2023-03-03T03:36:13.812Z,41.50
2023-03-03T03:38:40.362Z,40.03
2023-03-03T03:41:07.990Z,38.90
2023-03-03T03:43:35.135Z,38.87
2023-03-03T03:46:01.722Z,34.47
2023-03-03T03:48:28.681Z,36.97
2023-03-03T03:50:55.446Z,32.13
2023-03-03T03:53:22.172Z,31.63
2023-03-03T03:55:48.941Z,30.10
2023-03-03T03:58:17.390Z,32.67
2023-03-03T04:00:45.403Z,32.80
2023-03-03T04:03:14.522Z,39.00
2023-03-03T04:05:41.419Z,40.83
2023-03-03T04:08:08.717Z,38.20
2023-03-03T04:10:35.361Z,43.17
2023-03-03T04:13:01.903Z,42.77
2023-03-03T04:15:28.512Z,38.93
2023-03-03T04:17:55.067Z,34.03
2023-03-03T04:20:21.599Z,39.20
2023-03-03T04:22:48.534Z,43.83
2023-03-03T04:25:17.070Z,43.87
2023-03-03T04:27:44.435Z,45.10
2023-03-03T04:30:12.482Z,39.03
2023-03-03T04:32:39.083Z,39.57
2023-03-03T04:35:08.496Z,39.10
2023-03-03T04:37:36.444Z,38.57
2023-03-03T04:40:09.278Z,39.20
2023-03-03T04:42:36.236Z,40.30
2023-03-03T04:45:04.275Z,36.30
2023-03-03T04:47:32.480Z,39.53
2023-03-03T04:49:59.108Z,37.13
2023-03-03T04:52:25.729Z,38.60
2023-03-03T04:54:52.273Z,35.33
2023-03-03T04:57:18.850Z,42.97
2023-03-03T04:59:45.466Z,35.40
2023-03-03T05:02:13.018Z,33.93
2023-03-03T05:04:39.916Z,28.47
2023-03-03T05:07:06.525Z,32.53
2023-03-03T05:09:33.141Z,30.53
2023-03-03T05:11:59.797Z,31.50
2023-03-03T05:14:27.376Z,31.50
2023-03-03T05:16:54.479Z,30.80
2023-03-03T05:19:21.080Z,31.10
2023-03-03T05:21:48.437Z,31.27
2023-03-03T05:24:15.147Z,30.00
2023-03-03T05:26:42.333Z,29.63
2023-03-03T05:29:09.225Z,34.80
2023-03-03T05:31:36.507Z,31.30
2023-03-03T05:34:03.740Z,30.27
2023-03-03T05:36:30.464Z,31.50
2023-03-03T05:38:57.198Z,32.63
2023-03-03T05:41:24.171Z,31.80
2023-03-03T05:43:50.867Z,31.60
2023-03-03T05:46:17.648Z,31.80
2023-03-03T05:48:44.256Z,39.40
2023-03-03T05:51:11.418Z,30.30
2023-03-03T05:53:37.966Z,34.27
2023-03-03T05:56:04.705Z,38.53
2023-03-03T05:58:31.260Z,37.93
2023-03-03T06:00:57.799Z,41.13
2023-03-03T06:03:24.592Z,42.53
2023-03-03T06:05:51.139Z,44.70
2023-03-03T06:08:18.051Z,37.50
2023-03-03T06:10:44.644Z,36.67
2023-03-03T06:13:11.311Z,43.50
2023-03-03T06:15:38.107Z,40.93
2023-03-03T06:18:05.189Z,41.80
2023-03-03T06:20:32.083Z,40.77
2023-03-03T06:22:58.950Z,39.53
2023-03-03T06:25:26.104Z,39.23
2023-03-03T06:27:52.887Z,45.63
2023-03-03T06:30:19.755Z,44.40
2023-03-03T06:32:46.740Z,35.57
2023-03-03T06:35:13.434Z,43.67
2023-03-03T06:37:40.076Z,38.37
2023-03-03T06:40:07.577Z,45.70
2023-03-03T06:42:34.219Z,44.17
2023-03-03T06:45:00.762Z,49.07
2023-03-03T06:47:27.617Z,43.20
2023-03-03T06:49:54.107Z,48.60
2023-03-03T06:52:23.428Z,43.93
2023-03-03T06:54:50.409Z,45.77
2023-03-03T06:57:18.241Z,44.57
2023-03-03T06:59:45.314Z,48.10
2023-03-03T07:02:18.087Z,40.47
2023-03-03T07:04:47.093Z,51.43
2023-03-03T07:07:22.415Z,48.73
2023-03-03T07:09:51.360Z,45.27
2023-03-03T07:12:22.259Z,45.07
2023-03-03T07:14:55.589Z,53.87
2023-03-03T07:17:24.972Z,50.20
2023-03-03T07:19:51.959Z,49.30
2023-03-03T07:22:22.160Z,45.30
2023-03-03T07:24:53.000Z,44.60
2023-03-03T07:27:19.774Z,46.73
2023-03-03T07:29:48.312Z,49.37
2023-03-03T07:32:26.995Z,45.10
2023-03-03T07:34:56.133Z,46.70
2023-03-03T07:37:30.983Z,45.67
2023-03-03T07:39:57.750Z,43.40
2023-03-03T07:42:29.617Z,44.93
2023-03-03T07:44:58.575Z,38.40
2023-03-03T07:47:31.279Z,44.83
2023-03-03T07:50:00.826Z,45.40
2023-03-03T07:52:40.806Z,46.43
2023-03-03T07:55:39.904Z,45.10
2023-03-03T07:58:16.490Z,44.77
2023-03-03T08:00:43.109Z,45.10
2023-03-03T08:03:17.664Z,46.20
2023-03-03T08:05:47.423Z,46.97
2023-03-03T08:08:19.475Z,44.50
2023-03-03T08:10:51.338Z,43.53
2023-03-03T08:13:33.186Z,41.93
2023-03-03T08:16:22.159Z,56.60
2023-03-03T08:18:50.597Z,46.57
2023-03-03T08:21:23.873Z,46.53
2023-03-03T08:23:51.782Z,52.30
2023-03-03T08:26:19.657Z,52.80
2023-03-03T08:28:47.193Z,52.23
2023-03-03T08:31:25.219Z,49.60
2023-03-03T08:33:58.777Z,50.90
2023-03-03T08:36:25.331Z,42.03
2023-03-03T08:38:51.863Z,42.80
2023-03-03T08:41:18.886Z,40.53
2023-03-03T08:43:45.445Z,47.10
2023-03-03T08:46:12.547Z,42.77
2023-03-03T08:48:39.202Z,46.17
2023-03-03T08:51:06.740Z,42.60
2023-03-03T08:53:36.502Z,45.63
2023-03-03T08:56:03.536Z,44.73
2023-03-03T08:58:35.650Z,42.00
2023-03-03T09:01:02.816Z,49.17
2023-03-03T09:03:30.095Z,43.73
2023-03-03T09:05:56.717Z,42.17
2023-03-03T09:08:23.400Z,40.93
2023-03-03T09:10:49.944Z,39.83
2023-03-03T09:13:21.827Z,47.93
2023-03-03T09:15:49.309Z,39.57
2023-03-03T09:18:15.954Z,35.27
2023-03-03T09:20:52.491Z,42.70
2023-03-03T09:23:31.361Z,34.23
2023-03-03T09:26:19.112Z,41.67
2023-03-03T09:28:45.735Z,40.33
2023-03-03T09:31:35.087Z,38.47
2023-03-03T09:34:02.020Z,39.13
2023-03-03T09:36:30.745Z,42.60
2023-03-03T09:38:57.879Z,36.47
2023-03-03T09:41:35.088Z,38.30
2023-03-03T09:44:26.615Z,46.50
2023-03-03T09:46:59.796Z,41.40
2023-03-03T09:49:33.388Z,44.13
2023-03-03T09:52:19.891Z,46.70
2023-03-03T09:55:11.471Z,41.87
2023-03-03T09:58:10.075Z,39.87
2023-03-03T10:00:46.429Z,40.63
2023-03-03T10:03:28.426Z,41.60
2023-03-03T10:06:03.477Z,38.30
2023-03-03T10:08:51.810Z,45.50
2023-03-03T10:11:29.391Z,45.13
2023-03-03T10:14:15.138Z,34.57
2023-03-03T10:16:59.982Z,41.60
2023-03-03T10:19:34.190Z,50.33
2023-03-03T10:22:09.848Z,39.63
2023-03-03T10:24:47.585Z,42.20
2023-03-03T10:27:49.232Z,38.93
2023-03-03T10:30:58.428Z,41.07
2023-03-03T10:33:44.688Z,40.93
2023-03-03T10:36:24.780Z,43.20
2023-03-03T10:38:56.893Z,48.60
2023-03-03T10:41:30.880Z,42.87
2023-03-03T10:44:27.954Z,45.03
2023-03-03T10:47:19.402Z,43.23
2023-03-03T10:50:11.117Z,41.03
2023-03-03T10:52:49.696Z,42.77
2023-03-03T10:55:25.174Z,43.43
2023-03-03T10:58:12.307Z,41.37
2023-03-03T11:00:49.370Z,33.83
2023-03-03T11:03:40.978Z,41.27
2023-03-03T11:06:40.644Z,36.33
2023-03-03T11:09:31.476Z,41.50
2023-03-03T11:12:10.881Z,38.60
2023-03-03T11:14:56.037Z,36.43
2023-03-03T11:17:47.141Z,41.00
2023-03-03T11:20:31.704Z,36.83
2023-03-03T11:23:19.999Z,32.43
2023-03-03T11:25:53.213Z,37.40
2023-03-03T11:28:19.737Z,36.23
2023-03-03T11:31:20.673Z,37.83
2023-03-03T11:33:56.368Z,38.00
2023-03-03T11:36:35.145Z,40.97
2023-03-03T11:39:05.592Z,36.50
2023-03-03T11:41:53.106Z,41.87
2023-03-03T11:44:29.589Z,40.50
2023-03-03T11:47:06.547Z,49.33
2023-03-03T11:49:45.283Z,44.10
2023-03-03T11:52:12.049Z,42.33
2023-03-03T11:55:00.552Z,37.30
2023-03-03T11:57:51.764Z,41.43
2023-03-03T12:00:24.404Z,44.93
2023-03-03T12:03:16.288Z,43.93
2023-03-03T12:06:09.116Z,34.83
2023-03-03T12:08:58.505Z,32.93
2023-03-03T12:11:28.729Z,32.70
2023-03-03T12:14:01.216Z,33.23
2023-03-03T12:17:01.257Z,41.20
2023-03-03T12:19:43.021Z,37.60
2023-03-03T12:22:31.237Z,33.73
2023-03-03T12:25:18.064Z,32.47
2023-03-03T12:28:46.919Z,29.60
2023-03-03T12:31:31.952Z,37.70
2023-03-03T12:34:09.606Z,30.90
2023-03-03T12:36:51.452Z,38.03
2023-03-03T12:39:43.399Z,35.40
2023-03-03T12:42:36.394Z,31.93
2023-03-03T12:45:09.853Z,36.40
2023-03-03T12:47:51.098Z,30.93
2023-03-03T12:50:38.933Z,32.87
2023-03-03T12:53:26.802Z,36.30
2023-03-03T12:55:57.201Z,35.50
2023-03-03T12:58:32.895Z,33.73
2023-03-03T13:01:30.238Z,30.67
2023-03-03T13:04:05.861Z,33.27
2023-03-03T13:06:35.569Z,28.33
2023-03-03T13:09:37.363Z,33.47
2023-03-03T13:12:36.510Z,30.13
2023-03-03T13:15:31.632Z,32.27
2023-03-03T13:18:27.907Z,29.00
2023-03-03T13:20:59.379Z,32.63
2023-03-03T13:23:44.343Z,34.63
2023-03-03T13:26:22.583Z,29.70
2023-03-03T13:29:08.254Z,32.37
2023-03-03T13:31:38.388Z,32.40
2023-03-03T13:34:07.737Z,30.80
2023-03-03T13:36:39.182Z,32.97
2023-03-03T13:39:22.346Z,32.80
2023-03-03T13:41:57.012Z,39.00
2023-03-03T13:44:34.736Z,32.93
2023-03-03T13:47:19.636Z,34.77
2023-03-03T13:50:04.774Z,32.43
2023-03-03T13:52:57.528Z,31.63
2023-03-03T13:55:36.386Z,33.43
2023-03-03T13:58:12.909Z,32.30
2023-03-03T14:01:00.855Z,32.60
2023-03-03T14:03:44.743Z,32.47
2023-03-03T14:06:16.024Z,33.27
2023-03-03T14:08:55.002Z,26.47
2023-03-03T14:11:31.270Z,32.60
2023-03-03T14:14:16.298Z,32.73
2023-03-03T14:16:52.339Z,32.03
2023-03-03T14:19:26.495Z,36.03
2023-03-03T14:22:03.453Z,33.07
2023-03-03T14:24:30.100Z,32.50
2023-03-03T14:26:58.467Z,30.90
2023-03-03T14:29:28.215Z,30.43
2023-03-03T14:31:56.170Z,33.17
2023-03-03T14:34:22.648Z,34.00
2023-03-03T14:36:50.825Z,32.63
2023-03-03T14:39:38.038Z,31.93
2023-03-03T14:42:12.355Z,35.43
2023-03-03T14:44:54.311Z,32.20
2023-03-03T14:47:26.698Z,32.47
2023-03-03T14:49:55.048Z,26.73
2023-03-03T14:52:24.513Z,28.40
2023-03-03T14:54:53.613Z,30.80
2023-03-03T14:57:25.555Z,33.47
2023-03-03T15:00:16.676Z,27.70
2023-03-03T15:02:52.150Z,25.70
2023-03-03T15:05:29.800Z,22.23
2023-03-03T15:07:56.800Z,37.50
2023-03-03T15:10:30.927Z,29.90
2023-03-03T15:12:57.755Z,27.77
2023-03-03T15:15:25.684Z,25.80
2023-03-03T15:17:54.129Z,32.10
2023-03-03T15:20:42.777Z,23.80
2023-03-03T15:23:09.263Z,29.47
2023-03-03T15:25:59.295Z,35.87
2023-03-03T15:28:44.819Z,27.03
2023-03-03T15:31:52.857Z,22.43
2023-03-03T15:34:48.837Z,28.67
2023-03-03T15:37:31.461Z,21.83
2023-03-03T15:40:16.169Z,26.07
2023-03-03T15:42:46.772Z,28.70
2023-03-03T15:45:33.652Z,23.53
2023-03-03T15:48:15.485Z,30.20
2023-03-03T15:51:17.280Z,28.37
2023-03-03T15:54:11.207Z,25.80
2023-03-03T15:56:58.277Z,26.40
2023-03-03T15:59:56.038Z,28.57
2023-03-03T16:05:29.431Z,28.33
2023-03-03T16:08:02.190Z,24.73
2023-03-03T16:10:52.480Z,22.63
2023-03-03T16:13:45.152Z,31.10
2023-03-03T16:16:12.386Z,30.23
2023-03-03T16:18:45.207Z,22.87
2023-03-03T16:21:24.838Z,31.83
2023-03-03T16:24:01.150Z,29.03
2023-03-03T16:26:42.183Z,29.40
2023-03-03T16:29:27.130Z,27.67
2023-03-03T16:32:13.500Z,29.97
2023-03-03T16:34:48.777Z,25.90
2023-03-03T16:37:19.809Z,26.17
2023-03-03T16:39:51.995Z,27.67
2023-03-03T16:42:28.407Z,39.10
2023-03-03T16:45:06.626Z,32.80
2023-03-03T16:47:39.230Z,27.40
2023-03-03T16:50:50.732Z,37.73
2023-03-03T16:53:53.323Z,36.43
2023-03-03T16:56:24.761Z,33.87
2023-03-03T16:59:19.493Z,32.10
2023-03-03T17:02:04.852Z,33.00
2023-03-03T17:05:03.059Z,35.97
2023-03-03T17:07:32.744Z,32.03
2023-03-03T17:10:19.475Z,29.07
2023-03-03T17:13:10.376Z,38.23
2023-03-03T17:15:40.007Z,31.27
2023-03-03T17:18:15.154Z,38.10
2023-03-03T17:20:56.137Z,33.70
2023-03-03T17:23:50.629Z,35.30
2023-03-03T17:26:27.668Z,39.53
2023-03-03T17:29:12.810Z,36.97
2023-03-03T17:32:02.796Z,34.10
2023-03-03T17:34:44.263Z,36.63
2023-03-03T17:37:32.552Z,33.00
2023-03-03T17:40:05.982Z,35.60
2023-03-03T17:42:50.379Z,37.50
2023-03-03T17:45:17.973Z,37.47
2023-03-03T17:48:06.329Z,37.47
2023-03-03T17:51:00.167Z,35.70
2023-03-03T17:53:48.576Z,38.20
2023-03-03T17:56:23.203Z,41.10
2023-03-03T17:59:31.528Z,40.07
2023-03-03T18:02:20.130Z,42.67
2023-03-03T18:04:52.697Z,38.60
2023-03-03T18:07:31.516Z,37.30
2023-03-03T18:10:35.881Z,41.40
2023-03-03T18:13:24.463Z,39.90
2023-03-03T18:16:19.385Z,32.83
2023-03-03T18:19:01.222Z,41.70
2023-03-03T18:21:50.222Z,39.03
2023-03-03T18:24:31.013Z,43.90
2023-03-03T18:27:14.158Z,39.07
2023-03-03T18:30:20.155Z,39.67
2023-03-03T18:32:55.734Z,35.10
2023-03-03T18:35:38.671Z,37.80
2023-03-03T18:38:17.596Z,41.93
2023-03-03T18:40:57.128Z,44.37
2023-03-03T18:43:45.187Z,40.80
2023-03-03T18:46:21.449Z,39.60
2023-03-03T18:48:57.756Z,46.83
2023-03-03T18:51:39.704Z,49.03
2023-03-03T18:54:12.522Z,38.07
2023-03-03T18:56:55.196Z,43.20
2023-03-03T18:59:34.132Z,42.37
2023-03-03T19:02:13.054Z,40.50
2023-03-03T19:04:55.703Z,33.80
2023-03-03T19:07:39.127Z,36.93
2023-03-03T19:10:21.430Z,46.43
2023-03-03T19:12:56.039Z,39.87
2023-03-03T19:15:33.615Z,38.03
2023-03-03T19:18:18.545Z,43.33
2023-03-03T19:21:05.646Z,40.27
2023-03-03T19:23:49.161Z,39.00
2023-03-03T19:26:24.835Z,37.30
2023-03-03T19:29:02.400Z,41.70
2023-03-03T19:31:37.546Z,39.73
2023-03-03T19:34:12.645Z,41.47
2023-03-03T19:36:51.439Z,36.97
2023-03-03T19:39:46.184Z,38.43
2023-03-03T19:42:19.038Z,43.20
2023-03-03T19:44:57.837Z,36.53
2023-03-03T19:47:43.459Z,39.43
2023-03-03T19:50:22.655Z,41.27
2023-03-03T19:53:05.174Z,44.10
2023-03-03T19:55:38.133Z,44.90
2023-03-03T19:58:38.729Z,44.30
2023-03-03T20:01:22.135Z,44.10
2023-03-03T20:04:32.838Z,38.00
2023-03-03T20:07:17.819Z,42.20
2023-03-03T20:09:50.475Z,42.17
2023-03-03T20:12:42.489Z,42.90
2023-03-03T20:15:09.912Z,38.10
2023-03-03T20:17:45.071Z,36.50
2023-03-03T20:20:41.000Z,36.90
2023-03-03T20:23:25.853Z,38.77
2023-03-03T20:26:01.100Z,43.37
2023-03-03T20:28:38.284Z,40.40
2023-03-03T20:31:29.570Z,46.77
2023-03-03T20:34:10.713Z,39.63
2023-03-03T20:37:04.584Z,41.63
2023-03-03T20:39:55.592Z,43.43
2023-03-03T20:42:55.792Z,44.60
2023-03-03T20:45:43.690Z,45.23
2023-03-03T20:48:15.591Z,40.53
2023-03-03T20:51:11.545Z,41.83
2023-03-03T20:53:47.078Z,47.07
2023-03-03T20:56:29.097Z,49.07
2023-03-03T20:59:17.281Z,46.50
2023-03-03T21:01:54.092Z,43.07
2023-03-03T21:04:31.975Z,48.17
2023-03-03T21:06:59.052Z,45.13
2023-03-03T21:09:43.864Z,37.83
2023-03-03T21:12:30.713Z,43.57
2023-03-03T21:15:21.360Z,41.27
2023-03-03T21:17:48.140Z,44.00
2023-03-03T21:20:40.897Z,45.53
2023-03-03T21:23:10.337Z,39.27
2023-03-03T21:25:47.580Z,45.47
2023-03-03T21:28:34.027Z,37.80
2023-03-03T21:31:08.087Z,42.43
2023-03-03T21:33:49.829Z,36.93
2023-03-03T21:36:20.788Z,40.97
2023-03-03T21:38:47.766Z,42.03
2023-03-03T21:41:15.785Z,40.70
2023-03-03T21:43:50.721Z,45.17
2023-03-03T21:46:21.814Z,37.07
2023-03-03T21:48:49.128Z,39.10
2023-03-03T21:51:15.886Z,40.47
2023-03-03T21:53:44.075Z,40.13
2023-03-03T21:56:13.545Z,39.20
2023-03-03T21:58:41.292Z,40.10
2023-03-03T22:01:07.909Z,39.50
2023-03-03T22:03:35.254Z,38.53
2023-03-03T22:06:05.151Z,40.93
2023-03-03T22:08:31.675Z,38.33
2023-03-03T22:10:58.182Z,34.53
2023-03-03T22:13:26.000Z,35.50
2023-03-03T22:15:53.363Z,34.83
2023-03-03T22:18:20.068Z,37.57
2023-03-03T22:20:47.788Z,34.20
2023-03-03T22:23:15.307Z,37.43
2023-03-03T22:25:42.072Z,38.20
2023-03-03T22:28:08.671Z,44.00
2023-03-03T22:30:35.839Z,41.63
2023-03-03T22:33:03.398Z,35.70
2023-03-03T22:35:29.997Z,36.23
2023-03-03T22:37:56.522Z,43.50
2023-03-03T22:40:23.172Z,44.07
2023-03-03T22:42:49.853Z,41.23
2023-03-03T22:45:16.400Z,41.00
2023-03-03T22:47:42.950Z,34.53
2023-03-03T22:50:10.125Z,43.20
2023-03-03T22:52:36.626Z,40.80
2023-03-03T22:55:04.227Z,40.43
2023-03-03T22:57:31.304Z,39.77
2023-03-03T22:59:58.094Z,40.73
2023-03-03T23:02:24.636Z,38.97
2023-03-03T23:04:58.018Z,45.87
2023-03-03T23:07:26.312Z,38.33
2023-03-03T23:09:52.894Z,44.43
2023-03-03T23:12:19.529Z,34.97
2023-03-03T23:14:46.036Z,40.60
2023-03-03T23:17:12.512Z,36.20
2023-03-03T23:19:39.161Z,35.97
2023-03-03T23:22:05.727Z,39.93
2023-03-03T23:24:33.129Z,42.10
2023-03-03T23:27:00.684Z,36.93
2023-03-03T23:29:27.300Z,33.60
2023-03-03T23:31:53.903Z,40.00
2023-03-03T23:34:20.473Z,36.10
2023-03-03T23:36:47.950Z,32.30
2023-03-03T23:39:15.230Z,33.43
2023-03-03T23:41:41.898Z,28.37
2023-03-03T23:44:08.441Z,28.83
2023-03-03T23:46:35.169Z,29.30
2023-03-03T23:49:02.105Z,32.63
2023-03-03T23:51:28.670Z,29.07
2023-03-03T23:53:55.972Z,31.17
2023-03-03T23:56:22.564Z,24.77
2023-03-03T23:58:49.129Z,29.60
